sensor_id;sensor_type;location;lat;lon;timestamp;P1;durP1;ratioP1;P2;durP2;ratioP2
36001;SDS011;22070;50.922;5.430;2023-05-10T00:02:06;13.40;;;8.82;;
36001;SDS011;22070;50.922;5.430;2023-05-10T00:04:32;15.57;;;10.32;;
36001;SDS011;22070;50.922;5.430;2023-05-10T00:06:58;14.20;;;9.37;;
36001;SDS011;22070;50.922;5.430;2023-05-10T00:09:24;15.53;;;9.93;;
36001;SDS011;22070;50.922;5.430;2023-05-10T00:11:49;13.40;;;9.40;;
36001;SDS011;22070;50.922;5.430;2023-05-10T00:14:15;9.07;;;6.57;;
36001;SDS011;22070;50.922;5.430;2023-05-10T00:16:41;14.43;;;9.48;;
36001;SDS011;22070;50.922;5.430;2023-05-10T00:19:07;13.67;;;9.37;;
36001;SDS011;22070;50.922;5.430;2023-05-10T00:21:33;16.17;;;9.40;;
36001;SDS011;22070;50.922;5.430;2023-05-10T00:23:58;15.20;;;9.70;;
36001;SDS011;22070;50.922;5.430;2023-05-10T00:26:24;11.95;;;9.23;;
36001;SDS011;22070;50.922;5.430;2023-05-10T00:28:50;16.15;;;9.07;;
36001;SDS011;22070;50.922;5.430;2023-05-10T00:31:16;17.50;;;9.90;;
36001;SDS011;22070;50.922;5.430;2023-05-10T00:33:42;13.87;;;9.80;;
36001;SDS011;22070;50.922;5.430;2023-05-10T00:36:08;16.60;;;9.87;;
36001;SDS011;22070;50.922;5.430;2023-05-10T00:38:33;15.13;;;9.70;;
36001;SDS011;22070;50.922;5.430;2023-05-10T00:40:59;14.03;;;9.57;;
36001;SDS011;22070;50.922;5.430;2023-05-10T00:43:25;16.63;;;9.80;;
36001;SDS011;22070;50.922;5.430;2023-05-10T00:45:50;14.80;;;9.57;;
36001;SDS011;22070;50.922;5.430;2023-05-10T00:48:17;16.73;;;9.63;;
36001;SDS011;22070;50.922;5.430;2023-05-10T00:50:43;16.13;;;9.10;;
36001;SDS011;22070;50.922;5.430;2023-05-10T00:53:09;17.55;;;9.07;;
36001;SDS011;22070;50.922;5.430;2023-05-10T00:55:35;15.20;;;9.20;;
36001;SDS011;22070;50.922;5.430;2023-05-10T00:58:01;14.63;;;9.63;;
36001;SDS011;22070;50.922;5.430;2023-05-10T01:00:27;15.93;;;9.47;;
36001;SDS011;22070;50.922;5.430;2023-05-10T01:02:53;12.23;;;9.53;;
36001;SDS011;22070;50.922;5.430;2023-05-10T01:05:19;13.68;;;8.75;;
36001;SDS011;22070;50.922;5.430;2023-05-10T01:07:45;16.25;;;9.50;;
36001;SDS011;22070;50.922;5.430;2023-05-10T01:10:10;14.90;;;9.70;;
36001;SDS011;22070;50.922;5.430;2023-05-10T01:12:37;19.97;;;10.03;;
36001;SDS011;22070;50.922;5.430;2023-05-10T01:15:05;12.65;;;9.57;;
36001;SDS011;22070;50.922;5.430;2023-05-10T01:17:33;14.23;;;9.75;;
36001;SDS011;22070;50.922;5.430;2023-05-10T01:20:01;15.52;;;9.50;;
36001;SDS011;22070;50.922;5.430;2023-05-10T01:25:10;18.17;;;10.05;;
36001;SDS011;22070;50.922;5.430;2023-05-10T01:36:32;16.10;;;9.68;;
36001;SDS011;22070;50.922;5.430;2023-05-10T01:39:11;15.63;;;9.02;;
36001;SDS011;22070;50.922;5.430;2023-05-10T01:42:10;16.95;;;9.43;;
36001;SDS011;22070;50.922;5.430;2023-05-10T01:44:40;15.60;;;9.52;;
36001;SDS011;22070;50.922;5.430;2023-05-10T01:47:43;19.23;;;10.18;;
36001;SDS011;22070;50.922;5.430;2023-05-10T01:50:15;19.35;;;9.82;;
36001;SDS011;22070;50.922;5.430;2023-05-10T01:52:44;20.42;;;9.88;;
36001;SDS011;22070;50.922;5.430;2023-05-10T01:55:15;17.63;;;9.48;;
36001;SDS011;22070;50.922;5.430;2023-05-10T01:57:44;19.88;;;9.88;;
36001;SDS011;22070;50.922;5.430;2023-05-10T02:00:11;14.65;;;9.52;;
36001;SDS011;22070;50.922;5.430;2023-05-10T02:05:14;19.85;;;10.70;;
36001;SDS011;22070;50.922;5.430;2023-05-10T02:07:41;21.88;;;10.55;;
36001;SDS011;22070;50.922;5.430;2023-05-10T02:10:08;22.80;;;10.57;;
36001;SDS011;22070;50.922;5.430;2023-05-10T02:12:36;20.15;;;9.82;;
36001;SDS011;22070;50.922;5.430;2023-05-10T02:15:04;22.00;;;10.35;;
36001;SDS011;22070;50.922;5.430;2023-05-10T02:17:32;18.15;;;10.90;;
36001;SDS011;22070;50.922;5.430;2023-05-10T02:19:58;19.27;;;10.57;;
36001;SDS011;22070;50.922;5.430;2023-05-10T02:22:26;27.63;;;11.32;;
36001;SDS011;22070;50.922;5.430;2023-05-10T02:24:53;21.80;;;10.32;;
36001;SDS011;22070;50.922;5.430;2023-05-10T02:27:23;20.60;;;10.50;;
36001;SDS011;22070;50.922;5.430;2023-05-10T02:29:50;23.48;;;10.82;;
36001;SDS011;22070;50.922;5.430;2023-05-10T02:32:17;18.65;;;10.07;;
36001;SDS011;22070;50.922;5.430;2023-05-10T02:34:44;19.50;;;10.35;;
36001;SDS011;22070;50.922;5.430;2023-05-10T02:37:12;19.77;;;10.88;;
36001;SDS011;22070;50.922;5.430;2023-05-10T02:39:40;23.98;;;10.85;;
36001;SDS011;22070;50.922;5.430;2023-05-10T02:42:10;25.25;;;10.80;;
36001;SDS011;22070;50.922;5.430;2023-05-10T02:44:41;20.98;;;10.98;;
36001;SDS011;22070;50.922;5.430;2023-05-10T02:47:10;22.50;;;10.80;;
36001;SDS011;22070;50.922;5.430;2023-05-10T02:49:36;27.15;;;10.55;;
36001;SDS011;22070;50.922;5.430;2023-05-10T02:52:02;22.30;;;10.82;;
36001;SDS011;22070;50.922;5.430;2023-05-10T02:54:36;21.50;;;10.82;;
36001;SDS011;22070;50.922;5.430;2023-05-10T02:57:08;19.25;;;10.93;;
36001;SDS011;22070;50.922;5.430;2023-05-10T02:59:40;20.00;;;11.25;;
36001;SDS011;22070;50.922;5.430;2023-05-10T03:02:07;22.80;;;11.73;;
36001;SDS011;22070;50.922;5.430;2023-05-10T03:04:35;17.88;;;10.30;;
36001;SDS011;22070;50.922;5.430;2023-05-10T03:07:01;20.23;;;10.73;;
36001;SDS011;22070;50.922;5.430;2023-05-10T03:09:27;15.30;;;8.32;;
36001;SDS011;22070;50.922;5.430;2023-05-10T03:12:00;25.92;;;12.10;;
36001;SDS011;22070;50.922;5.430;2023-05-10T03:19:58;27.88;;;12.40;;
36001;SDS011;22070;50.922;5.430;2023-05-10T03:22:32;22.95;;;12.40;;
36001;SDS011;22070;50.922;5.430;2023-05-10T03:25:04;27.85;;;12.85;;
36001;SDS011;22070;50.922;5.430;2023-05-10T03:27:31;22.55;;;12.35;;
36001;SDS011;22070;50.922;5.430;2023-05-10T03:32:25;25.33;;;12.15;;
36001;SDS011;22070;50.922;5.430;2023-05-10T03:34:52;24.92;;;12.57;;
36001;SDS011;22070;50.922;5.430;2023-05-10T03:37:17;23.33;;;12.55;;
36001;SDS011;22070;50.922;5.430;2023-05-10T03:39:43;29.77;;;13.33;;
36001;SDS011;22070;50.922;5.430;2023-05-10T03:42:09;20.77;;;11.67;;
36001;SDS011;22070;50.922;5.430;2023-05-10T03:44:36;22.02;;;12.55;;
36001;SDS011;22070;50.922;5.430;2023-05-10T03:49:29;27.57;;;13.53;;
36001;SDS011;22070;50.922;5.430;2023-05-10T03:51:54;26.37;;;13.43;;
36001;SDS011;22070;50.922;5.430;2023-05-10T03:54:20;23.95;;;12.75;;
36001;SDS011;22070;50.922;5.430;2023-05-10T03:56:46;28.83;;;13.82;;
36001;SDS011;22070;50.922;5.430;2023-05-10T03:59:13;26.38;;;13.27;;
36001;SDS011;22070;50.922;5.430;2023-05-10T04:01:38;28.77;;;13.23;;
36001;SDS011;22070;50.922;5.430;2023-05-10T04:04:04;21.80;;;12.73;;
36001;SDS011;22070;50.922;5.430;2023-05-10T04:06:30;26.90;;;13.27;;
36001;SDS011;22070;50.922;5.430;2023-05-10T04:08:55;25.07;;;12.77;;
36001;SDS011;22070;50.922;5.430;2023-05-10T04:11:24;28.58;;;13.80;;
36001;SDS011;22070;50.922;5.430;2023-05-10T04:13:50;27.15;;;14.27;;
36001;SDS011;22070;50.922;5.430;2023-05-10T04:16:16;28.13;;;14.60;;
36001;SDS011;22070;50.922;5.430;2023-05-10T04:18:41;28.50;;;13.80;;
36001;SDS011;22070;50.922;5.430;2023-05-10T04:21:13;33.73;;;13.87;;
36001;SDS011;22070;50.922;5.430;2023-05-10T04:23:39;31.75;;;13.48;;
36001;SDS011;22070;50.922;5.430;2023-05-10T04:26:05;21.75;;;11.50;;
36001;SDS011;22070;50.922;5.430;2023-05-10T04:28:31;22.17;;;11.30;;
36001;SDS011;22070;50.922;5.430;2023-05-10T04:31:00;19.73;;;11.02;;
36001;SDS011;22070;50.922;5.430;2023-05-10T04:33:30;22.58;;;12.30;;
36001;SDS011;22070;50.922;5.430;2023-05-10T04:35:56;20.08;;;12.02;;
36001;SDS011;22070;50.922;5.430;2023-05-10T04:38:21;21.03;;;11.57;;
36001;SDS011;22070;50.922;5.430;2023-05-10T04:40:47;23.00;;;12.03;;
36001;SDS011;22070;50.922;5.430;2023-05-10T04:43:13;23.73;;;12.40;;
36001;SDS011;22070;50.922;5.430;2023-05-10T04:45:39;23.42;;;13.32;;
36001;SDS011;22070;50.922;5.430;2023-05-10T04:48:04;23.77;;;13.23;;
36001;SDS011;22070;50.922;5.430;2023-05-10T04:50:30;26.67;;;13.70;;
36001;SDS011;22070;50.922;5.430;2023-05-10T04:52:56;23.03;;;13.10;;
36001;SDS011;22070;50.922;5.430;2023-05-10T04:55:22;24.23;;;13.80;;
36001;SDS011;22070;50.922;5.430;2023-05-10T04:57:48;27.40;;;13.73;;
36001;SDS011;22070;50.922;5.430;2023-05-10T05:00:14;29.50;;;13.57;;
36001;SDS011;22070;50.922;5.430;2023-05-10T05:02:43;29.47;;;14.50;;
36001;SDS011;22070;50.922;5.430;2023-05-10T05:05:12;29.20;;;14.43;;
36001;SDS011;22070;50.922;5.430;2023-05-10T05:07:37;28.00;;;14.73;;
36001;SDS011;22070;50.922;5.430;2023-05-10T05:10:07;28.97;;;14.03;;
36001;SDS011;22070;50.922;5.430;2023-05-10T05:12:33;41.17;;;15.05;;
36001;SDS011;22070;50.922;5.430;2023-05-10T05:15:00;29.08;;;13.82;;
36001;SDS011;22070;50.922;5.430;2023-05-10T05:17:26;28.70;;;13.90;;
36001;SDS011;22070;50.922;5.430;2023-05-10T05:19:51;26.00;;;14.57;;
36001;SDS011;22070;50.922;5.430;2023-05-10T05:22:18;25.95;;;13.50;;
36001;SDS011;22070;50.922;5.430;2023-05-10T05:24:52;25.63;;;13.88;;
36001;SDS011;22070;50.922;5.430;2023-05-10T05:27:21;28.05;;;13.98;;
36001;SDS011;22070;50.922;5.430;2023-05-10T05:29:53;29.98;;;15.50;;
36001;SDS011;22070;50.922;5.430;2023-05-10T05:32:19;34.35;;;16.15;;
36001;SDS011;22070;50.922;5.430;2023-05-10T05:34:45;42.27;;;16.40;;
36001;SDS011;22070;50.922;5.430;2023-05-10T05:37:29;37.00;;;15.98;;
36001;SDS011;22070;50.922;5.430;2023-05-10T05:39:54;39.28;;;18.33;;
36001;SDS011;22070;50.922;5.430;2023-05-10T05:42:20;35.30;;;12.65;;
36001;SDS011;22070;50.922;5.430;2023-05-10T05:44:45;39.92;;;18.40;;
36001;SDS011;22070;50.922;5.430;2023-05-10T05:47:11;50.33;;;19.80;;
36001;SDS011;22070;50.922;5.430;2023-05-10T05:49:37;52.80;;;21.20;;
36001;SDS011;22070;50.922;5.430;2023-05-10T05:52:03;51.23;;;20.17;;
36001;SDS011;22070;50.922;5.430;2023-05-10T05:54:29;56.58;;;22.30;;
36001;SDS011;22070;50.922;5.430;2023-05-10T05:56:59;58.10;;;21.25;;
36001;SDS011;22070;50.922;5.430;2023-05-10T05:59:25;54.78;;;22.02;;
36001;SDS011;22070;50.922;5.430;2023-05-10T06:01:51;57.70;;;23.37;;
36001;SDS011;22070;50.922;5.430;2023-05-10T06:04:17;56.78;;;22.83;;
36001;SDS011;22070;50.922;5.430;2023-05-10T06:06:44;62.40;;;23.98;;
36001;SDS011;22070;50.922;5.430;2023-05-10T06:09:09;55.57;;;22.87;;
36001;SDS011;22070;50.922;5.430;2023-05-10T06:11:35;54.40;;;22.27;;
36001;SDS011;22070;50.922;5.430;2023-05-10T06:14:01;59.03;;;23.53;;
36001;SDS011;22070;50.922;5.430;2023-05-10T06:16:29;52.47;;;22.33;;
36001;SDS011;22070;50.922;5.430;2023-05-10T06:18:55;57.00;;;23.30;;
36001;SDS011;22070;50.922;5.430;2023-05-10T06:21:21;55.07;;;22.63;;
36001;SDS011;22070;50.922;5.430;2023-05-10T06:23:47;53.85;;;22.13;;
36001;SDS011;22070;50.922;5.430;2023-05-10T06:26:12;49.83;;;21.35;;
36001;SDS011;22070;50.922;5.430;2023-05-10T06:28:38;51.67;;;22.37;;
36001;SDS011;22070;50.922;5.430;2023-05-10T06:31:04;48.40;;;20.02;;
36001;SDS011;22070;50.922;5.430;2023-05-10T06:33:30;47.90;;;21.63;;
36001;SDS011;22070;50.922;5.430;2023-05-10T06:35:56;48.87;;;22.23;;
36001;SDS011;22070;50.922;5.430;2023-05-10T06:38:22;51.57;;;21.43;;
36001;SDS011;22070;50.922;5.430;2023-05-10T06:40:48;52.97;;;22.50;;
36001;SDS011;22070;50.922;5.430;2023-05-10T06:43:13;52.20;;;22.20;;
36001;SDS011;22070;50.922;5.430;2023-05-10T06:45:39;51.80;;;21.90;;
36001;SDS011;22070;50.922;5.430;2023-05-10T06:48:05;49.97;;;21.52;;
36001;SDS011;22070;50.922;5.430;2023-05-10T06:50:31;49.80;;;22.10;;
36001;SDS011;22070;50.922;5.430;2023-05-10T06:52:58;55.20;;;22.50;;
36001;SDS011;22070;50.922;5.430;2023-05-10T06:55:24;56.57;;;22.23;;
36001;SDS011;22070;50.922;5.430;2023-05-10T06:57:49;50.53;;;22.17;;
36001;SDS011;22070;50.922;5.430;2023-05-10T07:00:15;51.40;;;22.40;;
36001;SDS011;22070;50.922;5.430;2023-05-10T07:02:42;48.45;;;20.58;;
36001;SDS011;22070;50.922;5.430;2023-05-10T07:05:08;53.28;;;21.40;;
36001;SDS011;22070;50.922;5.430;2023-05-10T07:07:34;47.30;;;20.83;;
36001;SDS011;22070;50.922;5.430;2023-05-10T07:10:00;47.42;;;20.45;;
36001;SDS011;22070;50.922;5.430;2023-05-10T07:12:26;50.57;;;21.13;;
36001;SDS011;22070;50.922;5.430;2023-05-10T07:14:51;50.42;;;21.55;;
36001;SDS011;22070;50.922;5.430;2023-05-10T07:17:17;42.93;;;20.00;;
36001;SDS011;22070;50.922;5.430;2023-05-10T07:19:43;43.08;;;19.85;;
36001;SDS011;22070;50.922;5.430;2023-05-10T07:22:08;50.67;;;21.80;;
36001;SDS011;22070;50.922;5.430;2023-05-10T07:24:34;45.30;;;20.30;;
36001;SDS011;22070;50.922;5.430;2023-05-10T07:27:00;47.87;;;19.80;;
36001;SDS011;22070;50.922;5.430;2023-05-10T07:29:26;45.88;;;20.45;;
36001;SDS011;22070;50.922;5.430;2023-05-10T07:31:52;54.63;;;22.20;;
36001;SDS011;22070;50.922;5.430;2023-05-10T07:34:18;47.33;;;20.43;;
36001;SDS011;22070;50.922;5.430;2023-05-10T07:36:43;44.45;;;19.65;;
36001;SDS011;22070;50.922;5.430;2023-05-10T07:39:09;45.27;;;20.67;;
36001;SDS011;22070;50.922;5.430;2023-05-10T07:41:35;44.00;;;18.85;;
36001;SDS011;22070;50.922;5.430;2023-05-10T07:44:02;44.15;;;20.25;;
36001;SDS011;22070;50.922;5.430;2023-05-10T07:46:28;40.60;;;18.05;;
36001;SDS011;22070;50.922;5.430;2023-05-10T07:48:54;40.17;;;19.43;;
36001;SDS011;22070;50.922;5.430;2023-05-10T07:51:20;41.90;;;19.23;;
36001;SDS011;22070;50.922;5.430;2023-05-10T07:53:46;39.37;;;19.07;;
36001;SDS011;22070;50.922;5.430;2023-05-10T07:56:22;34.27;;;16.47;;
36001;SDS011;22070;50.922;5.430;2023-05-10T07:58:54;38.22;;;17.27;;
36001;SDS011;22070;50.922;5.430;2023-05-10T08:01:20;20.45;;;10.88;;
36001;SDS011;22070;50.922;5.430;2023-05-10T08:03:46;14.80;;;8.90;;
36001;SDS011;22070;50.922;5.430;2023-05-10T08:06:13;10.10;;;6.32;;
36001;SDS011;22070;50.922;5.430;2023-05-10T08:08:40;6.35;;;4.78;;
36001;SDS011;22070;50.922;5.430;2023-05-10T08:11:06;6.32;;;3.17;;
36001;SDS011;22070;50.922;5.430;2023-05-10T08:13:32;6.85;;;3.58;;
36001;SDS011;22070;50.922;5.430;2023-05-10T08:15:57;3.30;;;2.70;;
36001;SDS011;22070;50.922;5.430;2023-05-10T08:18:23;5.07;;;2.67;;
36001;SDS011;22070;50.922;5.430;2023-05-10T08:20:49;2.57;;;2.37;;
36001;SDS011;22070;50.922;5.430;2023-05-10T08:23:14;4.13;;;2.63;;
36001;SDS011;22070;50.922;5.430;2023-05-10T08:25:40;2.90;;;2.37;;
36001;SDS011;22070;50.922;5.430;2023-05-10T08:28:06;2.33;;;2.13;;
36001;SDS011;22070;50.922;5.430;2023-05-10T08:30:32;3.80;;;2.40;;
36001;SDS011;22070;50.922;5.430;2023-05-10T08:32:57;3.90;;;2.30;;
36001;SDS011;22070;50.922;5.430;2023-05-10T08:35:23;4.23;;;2.00;;
36001;SDS011;22070;50.922;5.430;2023-05-10T08:37:50;2.80;;;2.20;;
36001;SDS011;22070;50.922;5.430;2023-05-10T08:40:16;3.55;;;2.45;;
36001;SDS011;22070;50.922;5.430;2023-05-10T08:42:46;3.60;;;2.60;;
36001;SDS011;22070;50.922;5.430;2023-05-10T08:45:16;3.45;;;2.70;;
36001;SDS011;22070;50.922;5.430;2023-05-10T08:47:44;4.32;;;2.67;;
36001;SDS011;22070;50.922;5.430;2023-05-10T08:50:10;4.43;;;2.80;;
36001;SDS011;22070;50.922;5.430;2023-05-10T08:52:37;3.83;;;2.40;;
36001;SDS011;22070;50.922;5.430;2023-05-10T08:55:06;3.63;;;2.58;;
36001;SDS011;22070;50.922;5.430;2023-05-10T08:57:32;4.03;;;2.47;;
36001;SDS011;22070;50.922;5.430;2023-05-10T08:59:59;8.03;;;3.00;;
36001;SDS011;22070;50.922;5.430;2023-05-10T09:02:26;6.10;;;2.90;;
36001;SDS011;22070;50.922;5.430;2023-05-10T09:04:52;4.60;;;3.42;;
36001;SDS011;22070;50.922;5.430;2023-05-10T09:07:18;5.07;;;3.30;;
36001;SDS011;22070;50.922;5.430;2023-05-10T09:09:45;5.85;;;3.67;;
36001;SDS011;22070;50.922;5.430;2023-05-10T09:12:11;5.60;;;3.30;;
36001;SDS011;22070;50.922;5.430;2023-05-10T09:14:40;5.85;;;3.70;;
36001;SDS011;22070;50.922;5.430;2023-05-10T09:17:07;4.20;;;3.45;;
36001;SDS011;22070;50.922;5.430;2023-05-10T09:19:32;6.63;;;3.87;;
36001;SDS011;22070;50.922;5.430;2023-05-10T09:21:58;3.63;;;3.22;;
36001;SDS011;22070;50.922;5.430;2023-05-10T09:24:26;5.60;;;3.88;;
36001;SDS011;22070;50.922;5.430;2023-05-10T09:26:52;7.28;;;3.97;;
36001;SDS011;22070;50.922;5.430;2023-05-10T09:29:18;6.70;;;4.40;;
36001;SDS011;22070;50.922;5.430;2023-05-10T09:31:48;4.77;;;3.90;;
36001;SDS011;22070;50.922;5.430;2023-05-10T09:34:22;6.90;;;4.50;;
36001;SDS011;22070;50.922;5.430;2023-05-10T09:36:55;6.45;;;4.60;;
36001;SDS011;22070;50.922;5.430;2023-05-10T09:39:37;8.00;;;4.90;;
36001;SDS011;22070;50.922;5.430;2023-05-10T09:42:04;7.45;;;4.70;;
36001;SDS011;22070;50.922;5.430;2023-05-10T09:44:34;7.07;;;4.50;;
36001;SDS011;22070;50.922;5.430;2023-05-10T09:47:03;9.40;;;5.28;;
36001;SDS011;22070;50.922;5.430;2023-05-10T09:49:29;8.23;;;5.85;;
36001;SDS011;22070;50.922;5.430;2023-05-10T09:52:05;8.95;;;5.22;;
36001;SDS011;22070;50.922;5.430;2023-05-10T09:54:32;7.38;;;5.18;;
36001;SDS011;22070;50.922;5.430;2023-05-10T09:56:58;7.30;;;5.13;;
36001;SDS011;22070;50.922;5.430;2023-05-10T09:59:27;7.70;;;5.63;;
36001;SDS011;22070;50.922;5.430;2023-05-10T10:01:55;7.05;;;5.55;;
36001;SDS011;22070;50.922;5.430;2023-05-10T10:04:22;10.55;;;5.60;;
36001;SDS011;22070;50.922;5.430;2023-05-10T10:06:58;9.60;;;6.15;;
36001;SDS011;22070;50.922;5.430;2023-05-10T10:09:25;10.15;;;5.97;;
36001;SDS011;22070;50.922;5.430;2023-05-10T10:11:51;11.67;;;6.70;;
36001;SDS011;22070;50.922;5.430;2023-05-10T10:14:18;11.67;;;6.90;;
36001;SDS011;22070;50.922;5.430;2023-05-10T10:16:44;10.30;;;7.10;;
36001;SDS011;22070;50.922;5.430;2023-05-10T10:19:10;11.87;;;6.87;;
36001;SDS011;22070;50.922;5.430;2023-05-10T10:21:35;12.03;;;6.97;;
36001;SDS011;22070;50.922;5.430;2023-05-10T10:24:01;10.00;;;7.20;;
36001;SDS011;22070;50.922;5.430;2023-05-10T10:26:30;12.45;;;7.97;;
36001;SDS011;22070;50.922;5.430;2023-05-10T10:32:03;12.25;;;7.68;;
36001;SDS011;22070;50.922;5.430;2023-05-10T10:34:36;15.98;;;9.05;;
36001;SDS011;22070;50.922;5.430;2023-05-10T10:37:05;14.27;;;8.20;;
36001;SDS011;22070;50.922;5.430;2023-05-10T10:39:31;13.55;;;8.25;;
36001;SDS011;22070;50.922;5.430;2023-05-10T10:41:58;13.90;;;8.90;;
36001;SDS011;22070;50.922;5.430;2023-05-10T10:46:59;14.32;;;8.07;;
36001;SDS011;22070;50.922;5.430;2023-05-10T10:49:28;13.50;;;8.45;;
36001;SDS011;22070;50.922;5.430;2023-05-10T10:52:15;15.43;;;8.63;;
36001;SDS011;22070;50.922;5.430;2023-05-10T10:54:52;12.38;;;8.35;;
36001;SDS011;22070;50.922;5.430;2023-05-10T10:57:21;15.32;;;8.77;;
36001;SDS011;22070;50.922;5.430;2023-05-10T10:59:48;12.75;;;8.30;;
36001;SDS011;22070;50.922;5.430;2023-05-10T11:07:54;11.55;;;7.38;;
36001;SDS011;22070;50.922;5.430;2023-05-10T11:10:22;11.45;;;7.28;;
36001;SDS011;22070;50.922;5.430;2023-05-10T11:15:31;11.27;;;7.40;;
36001;SDS011;22070;50.922;5.430;2023-05-10T11:17:58;7.82;;;6.20;;
36001;SDS011;22070;50.922;5.430;2023-05-10T11:20:28;11.30;;;6.83;;
36001;SDS011;22070;50.922;5.430;2023-05-10T11:23:13;10.70;;;6.80;;
36001;SDS011;22070;50.922;5.430;2023-05-10T11:25:43;10.57;;;6.82;;
36001;SDS011;22070;50.922;5.430;2023-05-10T11:30:37;8.93;;;5.68;;
36001;SDS011;22070;50.922;5.430;2023-05-10T11:33:04;7.47;;;5.22;;
36001;SDS011;22070;50.922;5.430;2023-05-10T11:35:31;8.73;;;5.72;;
36001;SDS011;22070;50.922;5.430;2023-05-10T11:38:05;9.13;;;5.35;;
36001;SDS011;22070;50.922;5.430;2023-05-10T11:40:35;6.68;;;4.60;;
36001;SDS011;22070;50.922;5.430;2023-05-10T11:43:01;7.20;;;4.95;;
36001;SDS011;22070;50.922;5.430;2023-05-10T11:45:28;6.40;;;4.97;;
36001;SDS011;22070;50.922;5.430;2023-05-10T11:47:55;6.70;;;4.93;;
36001;SDS011;22070;50.922;5.430;2023-05-10T11:50:21;7.10;;;4.88;;
36001;SDS011;22070;50.922;5.430;2023-05-10T11:53:05;8.40;;;5.43;;
36001;SDS011;22070;50.922;5.430;2023-05-10T11:55:33;7.03;;;5.05;;
36001;SDS011;22070;50.922;5.430;2023-05-10T11:58:00;9.73;;;5.47;;
36001;SDS011;22070;50.922;5.430;2023-05-10T12:00:26;10.13;;;5.05;;
36001;SDS011;22070;50.922;5.430;2023-05-10T12:02:52;5.33;;;4.47;;
36001;SDS011;22070;50.922;5.430;2023-05-10T12:05:18;6.27;;;4.37;;
36001;SDS011;22070;50.922;5.430;2023-05-10T12:07:44;5.63;;;4.60;;
36001;SDS011;22070;50.922;5.430;2023-05-10T12:10:10;6.20;;;4.70;;
36001;SDS011;22070;50.922;5.430;2023-05-10T12:12:45;6.20;;;4.75;;
36001;SDS011;22070;50.922;5.430;2023-05-10T12:15:22;7.72;;;4.70;;
36001;SDS011;22070;50.922;5.430;2023-05-10T12:17:49;6.55;;;4.70;;
36001;SDS011;22070;50.922;5.430;2023-05-10T12:22:46;6.18;;;4.65;;
36001;SDS011;22070;50.922;5.430;2023-05-10T12:25:14;5.40;;;4.32;;
36001;SDS011;22070;50.922;5.430;2023-05-10T12:27:40;5.73;;;4.00;;
36001;SDS011;22070;50.922;5.430;2023-05-10T12:30:12;6.45;;;4.75;;
36001;SDS011;22070;50.922;5.430;2023-05-10T12:32:41;3.30;;;2.88;;
36001;SDS011;22070;50.922;5.430;2023-05-10T12:35:09;4.35;;;3.88;;
36001;SDS011;22070;50.922;5.430;2023-05-10T12:37:35;6.27;;;3.83;;
36001;SDS011;22070;50.922;5.430;2023-05-10T12:40:07;3.95;;;3.47;;
36001;SDS011;22070;50.922;5.430;2023-05-10T12:42:34;5.28;;;4.32;;
36001;SDS011;22070;50.922;5.430;2023-05-10T12:45:01;8.15;;;4.93;;
36001;SDS011;22070;50.922;5.430;2023-05-10T12:47:27;8.98;;;3.83;;
36001;SDS011;22070;50.922;5.430;2023-05-10T12:49:53;3.93;;;2.93;;
36001;SDS011;22070;50.922;5.430;2023-05-10T12:52:19;5.50;;;4.13;;
36001;SDS011;22070;50.922;5.430;2023-05-10T12:54:44;8.10;;;6.00;;
36001;SDS011;22070;50.922;5.430;2023-05-10T12:57:10;13.90;;;8.52;;
36001;SDS011;22070;50.922;5.430;2023-05-10T12:59:36;10.53;;;5.90;;
36001;SDS011;22070;50.922;5.430;2023-05-10T13:02:02;5.97;;;4.37;;
36001;SDS011;22070;50.922;5.430;2023-05-10T13:04:27;6.40;;;4.10;;
36001;SDS011;22070;50.922;5.430;2023-05-10T13:06:53;10.90;;;6.30;;
36001;SDS011;22070;50.922;5.430;2023-05-10T13:09:21;6.57;;;3.60;;
36001;SDS011;22070;50.922;5.430;2023-05-10T13:11:46;11.07;;;7.10;;
36001;SDS011;22070;50.922;5.430;2023-05-10T13:14:13;10.77;;;6.35;;
36001;SDS011;22070;50.922;5.430;2023-05-10T13:16:39;6.38;;;4.45;;
36001;SDS011;22070;50.922;5.430;2023-05-10T13:19:05;6.07;;;5.00;;
36001;SDS011;22070;50.922;5.430;2023-05-10T13:21:30;5.90;;;3.87;;
36001;SDS011;22070;50.922;5.430;2023-05-10T13:23:56;10.40;;;8.03;;
36001;SDS011;22070;50.922;5.430;2023-05-10T13:26:22;7.40;;;5.20;;
36001;SDS011;22070;50.922;5.430;2023-05-10T13:28:47;9.13;;;5.53;;
36001;SDS011;22070;50.922;5.430;2023-05-10T13:31:13;8.57;;;5.60;;
36001;SDS011;22070;50.922;5.430;2023-05-10T13:33:39;6.17;;;4.80;;
36001;SDS011;22070;50.922;5.430;2023-05-10T13:36:05;3.67;;;2.80;;
36001;SDS011;22070;50.922;5.430;2023-05-10T13:38:31;3.55;;;3.08;;
36001;SDS011;22070;50.922;5.430;2023-05-10T13:40:57;4.27;;;3.63;;
36001;SDS011;22070;50.922;5.430;2023-05-10T13:43:23;5.67;;;4.40;;
36001;SDS011;22070;50.922;5.430;2023-05-10T13:45:49;7.47;;;5.30;;
36001;SDS011;22070;50.922;5.430;2023-05-10T13:48:15;4.10;;;3.27;;
36001;SDS011;22070;50.922;5.430;2023-05-10T13:50:41;3.53;;;2.80;;
36001;SDS011;22070;50.922;5.430;2023-05-10T13:53:08;4.07;;;2.97;;
36001;SDS011;22070;50.922;5.430;2023-05-10T13:55:33;3.67;;;2.60;;
36001;SDS011;22070;50.922;5.430;2023-05-10T13:57:59;2.50;;;2.30;;
36001;SDS011;22070;50.922;5.430;2023-05-10T14:00:25;3.83;;;2.83;;
36001;SDS011;22070;50.922;5.430;2023-05-10T14:05:17;2.07;;;1.90;;
36001;SDS011;22070;50.922;5.430;2023-05-10T14:07:43;2.20;;;2.10;;
36001;SDS011;22070;50.922;5.430;2023-05-10T14:10:08;3.63;;;2.20;;
36001;SDS011;22070;50.922;5.430;2023-05-10T14:12:34;2.30;;;1.80;;
36001;SDS011;22070;50.922;5.430;2023-05-10T14:15:00;4.23;;;1.90;;
36001;SDS011;22070;50.922;5.430;2023-05-10T14:17:26;6.50;;;3.83;;
36001;SDS011;22070;50.922;5.430;2023-05-10T14:19:52;3.53;;;2.60;;
36001;SDS011;22070;50.922;5.430;2023-05-10T14:22:18;1.80;;;1.67;;
36001;SDS011;22070;50.922;5.430;2023-05-10T14:24:43;2.50;;;2.30;;
36001;SDS011;22070;50.922;5.430;2023-05-10T14:27:11;1.88;;;1.77;;
36001;SDS011;22070;50.922;5.430;2023-05-10T14:29:37;4.10;;;2.23;;
36001;SDS011;22070;50.922;5.430;2023-05-10T14:32:03;2.10;;;1.70;;
36001;SDS011;22070;50.922;5.430;2023-05-10T14:34:29;1.83;;;1.73;;
36001;SDS011;22070;50.922;5.430;2023-05-10T14:36:54;1.63;;;1.53;;
36001;SDS011;22070;50.922;5.430;2023-05-10T14:39:20;1.88;;;1.77;;
36001;SDS011;22070;50.922;5.430;2023-05-10T14:41:47;4.38;;;1.63;;
36001;SDS011;22070;50.922;5.430;2023-05-10T14:44:13;1.60;;;1.50;;
36001;SDS011;22070;50.922;5.430;2023-05-10T14:46:40;2.75;;;1.73;;
36001;SDS011;22070;50.922;5.430;2023-05-10T14:49:06;1.50;;;1.40;;
36001;SDS011;22070;50.922;5.430;2023-05-10T14:51:32;1.70;;;1.60;;
36001;SDS011;22070;50.922;5.430;2023-05-10T14:53:58;1.97;;;1.40;;
36001;SDS011;22070;50.922;5.430;2023-05-10T14:56:24;1.27;;;1.03;;
36001;SDS011;22070;50.922;5.430;2023-05-10T14:58:51;4.00;;;1.70;;
36001;SDS011;22070;50.922;5.430;2023-05-10T15:01:16;2.77;;;1.40;;
36001;SDS011;22070;50.922;5.430;2023-05-10T15:03:42;1.70;;;1.60;;
36001;SDS011;22070;50.922;5.430;2023-05-10T15:06:08;1.53;;;1.43;;
36001;SDS011;22070;50.922;5.430;2023-05-10T15:08:34;1.50;;;1.40;;
36001;SDS011;22070;50.922;5.430;2023-05-10T15:10:59;1.30;;;1.20;;
36001;SDS011;22070;50.922;5.430;2023-05-10T15:13:25;1.90;;;1.50;;
36001;SDS011;22070;50.922;5.430;2023-05-10T15:15:51;1.67;;;1.57;;
36001;SDS011;22070;50.922;5.430;2023-05-10T15:18:16;1.90;;;1.00;;
36001;SDS011;22070;50.922;5.430;2023-05-10T15:20:42;1.43;;;1.20;;